Time;durP1;ratioP1;P1;durP2;ratioP2;P2;SDS_P1;SDS_P2;PMS_P1;PMS_P2;Temp;Humidity;BMP_temperature;BMP_pressure;BME280_temperature;BME280_humidity;BME280_pressure;Samples;Min_cycle;Max_cycle;Signal;HPM_P1;HPM_P2
2022/05/18 00:00:59;;;;;;;2.30;2.10;;;19.70;63.00;;;;;;5125525;28;20420;-73
2022/05/18 00:03:31;;;;;;;3.40;2.70;;;19.70;62.70;;;;;;5102584;28;20473;-71
2022/05/18 00:06:01;;;;;;;2.85;2.10;;;19.70;63.00;;;;;;5110862;27;20428;-71
2022/05/18 00:08:28;;;;;;;3.63;2.40;;;19.70;63.20;;;;;;5101830;27;20951;-71
2022/05/18 00:10:55;;;;;;;3.20;2.30;;;19.70;63.40;;;;;;5097867;28;20473;-71
2022/05/18 00:13:22;;;;;;;2.20;2.00;;;19.60;63.40;;;;;;5106137;28;20431;-70
2022/05/18 00:15:49;;;;;;;2.60;2.40;;;19.60;63.40;;;;;;5109179;27;20431;-70
2022/05/18 00:18:16;;;;;;;4.25;2.60;;;19.60;63.80;;;;;;5107699;28;20508;-70
2022/05/18 00:20:44;;;;;;;2.30;2.10;;;19.50;63.90;;;;;;5103519;28;20408;-70
2022/05/18 00:23:11;;;;;;;3.20;2.33;;;19.50;63.80;;;;;;5107483;28;20478;-71
2022/05/18 00:25:40;;;;;;;3.30;2.20;;;19.50;63.70;;;;;;5109564;28;20438;-70
2022/05/18 00:28:08;;;;;;;3.28;2.10;;;19.50;63.60;;;;;;5104491;27;20420;-72
2022/05/18 00:30:38;;;;;;;3.05;2.25;;;19.50;64.00;;;;;;5108794;28;20499;-71
2022/05/18 00:33:06;;;;;;;2.40;2.20;;;19.50;64.10;;;;;;5108850;28;20432;-72
2022/05/18 00:35:34;;;;;;;3.13;2.30;;;19.50;64.20;;;;;;5107698;27;20556;-70
2022/05/18 00:38:03;;;;;;;6.75;2.60;;;19.50;64.10;;;;;;5100848;28;21232;-70
2022/05/18 00:40:31;;;;;;;3.10;2.30;;;19.40;64.00;;;;;;5108537;28;20913;-70
2022/05/18 00:42:58;;;;;;;2.45;2.25;;;19.40;63.90;;;;;;5100758;28;20435;-70
2022/05/18 00:45:25;;;;;;;2.50;2.20;;;19.40;64.80;;;;;;5109457;28;20921;-71
2022/05/18 00:47:52;;;;;;;3.47;2.60;;;19.40;65.00;;;;;;5108460;28;20432;-70
2022/05/18 00:50:22;;;;;;;4.40;2.40;;;19.30;64.60;;;;;;5109371;27;20424;-70
2022/05/18 00:52:54;;;;;;;4.73;2.80;;;19.30;64.90;;;;;;5109304;28;20496;-70
2022/05/18 00:55:25;;;;;;;3.50;2.60;;;19.40;64.60;;;;;;5106926;28;20874;-70
2022/05/18 00:57:58;;;;;;;4.03;2.78;;;19.30;65.00;;;;;;5107679;28;20412;-71
2022/05/18 01:00:25;;;;;;;3.10;2.70;;;19.30;65.20;;;;;;5106528;28;20484;-70
2022/05/18 01:02:56;;;;;;;3.40;2.73;;;19.20;65.50;;;;;;5108249;28;20538;-70
2022/05/18 01:05:28;;;;;;;2.92;2.60;;;19.20;65.70;;;;;;5109611;28;20416;-69
2022/05/18 01:07:58;;;;;;;3.10;2.80;;;19.20;66.10;;;;;;5106384;28;20412;-70
2022/05/18 01:10:28;;;;;;;3.10;2.73;;;19.10;66.40;;;;;;5132491;27;20426;-71
2022/05/18 01:12:55;;;;;;;3.40;2.88;;;19.10;66.70;;;;;;5120125;28;20933;-72
2022/05/18 01:15:22;;;;;;;2.80;2.53;;;19.00;67.80;;;;;;5124420;28;20480;-70
2022/05/18 01:17:53;;;;;;;5.28;3.20;;;18.90;67.70;;;;;;5111038;27;20485;-72
2022/05/18 01:20:23;;;;;;;3.15;2.90;;;18.90;67.20;;;;;;5106167;28;20424;-71
2022/05/18 01:23:07;;;;;;;2.80;2.60;;;18.90;67.60;;;;;;5117856;28;20420;-71
2022/05/18 01:25:50;;;;;;;4.47;2.90;;;18.90;67.10;;;;;;5106731;28;20428;-70
2022/05/18 01:28:18;;;;;;;3.72;2.90;;;18.90;67.50;;;;;;5108246;27;20431;-70
2022/05/18 01:30:48;;;;;;;3.05;2.72;;;18.90;67.70;;;;;;5107705;27;20638;-70
2022/05/18 01:33:16;;;;;;;3.05;2.78;;;18.90;67.60;;;;;;5104820;28;20501;-71
2022/05/18 01:35:45;;;;;;;3.20;2.70;;;18.80;67.80;;;;;;5107131;28;20432;-70
2022/05/18 01:38:12;;;;;;;6.45;3.00;;;18.80;67.80;;;;;;5100640;27;20877;-70
2022/05/18 01:40:49;;;;;;;4.75;2.90;;;18.80;67.90;;;;;;5106637;28;20436;-70
2022/05/18 01:43:21;;;;;;;5.47;3.00;;;18.70;68.10;;;;;;5105801;27;20477;-70
2022/05/18 01:45:51;;;;;;;3.30;2.90;;;18.70;68.80;;;;;;5108034;28;20428;-72
2022/05/18 01:48:21;;;;;;;3.95;3.20;;;18.60;68.80;;;;;;5106356;28;20543;-70
2022/05/18 01:50:48;;;;;;;3.50;3.20;;;18.60;68.90;;;;;;5107637;28;20428;-70
2022/05/18 01:53:15;;;;;;;4.00;3.10;;;18.60;69.20;;;;;;5106876;27;20462;-69
2022/05/18 01:55:42;;;;;;;4.25;3.15;;;18.60;69.40;;;;;;5106631;28;20416;-69
2022/05/18 01:58:11;;;;;;;4.55;3.00;;;18.60;69.10;;;;;;5106501;28;20503;-70
2022/05/18 02:00:39;;;;;;;4.60;2.95;;;18.60;68.80;;;;;;5107893;28;20428;-71
2022/05/18 02:03:06;;;;;;;3.40;3.20;;;18.60;68.90;;;;;;5104806;28;20472;-69
2022/05/18 02:05:32;;;;;;;3.92;3.50;;;18.60;69.40;;;;;;5106299;28;20427;-71
2022/05/18 02:07:59;;;;;;;3.65;3.00;;;18.50;69.50;;;;;;5100708;28;21182;-72
2022/05/18 02:10:26;;;;;;;3.45;3.15;;;18.50;69.20;;;;;;5106384;28;21104;-71
2022/05/18 02:12:53;;;;;;;4.10;3.40;;;18.50;68.90;;;;;;5106937;28;20855;-72
2022/05/18 02:15:22;;;;;;;3.60;3.30;;;18.50;69.20;;;;;;5106665;28;20481;-71
2022/05/18 02:17:51;;;;;;;4.85;3.40;;;18.50;69.00;;;;;;5105825;28;20518;-72
2022/05/18 02:20:19;;;;;;;3.65;2.90;;;18.50;69.30;;;;;;5108895;28;20428;-71
2022/05/18 02:22:46;;;;;;;3.60;3.30;;;18.40;69.30;;;;;;5107630;28;20473;-71
2022/05/18 02:25:13;;;;;;;4.07;3.30;;;18.50;69.30;;;;;;5105973;28;20481;-70
2022/05/18 02:27:40;;;;;;;3.50;3.20;;;18.50;70.30;;;;;;5105762;28;20478;-70
2022/05/18 02:30:08;;;;;;;4.53;3.08;;;18.50;69.30;;;;;;5100850;28;20419;-71
2022/05/18 02:32:35;;;;;;;3.50;3.20;;;18.50;69.00;;;;;;5103249;28;20481;-71
2022/05/18 02:35:05;;;;;;;4.32;3.13;;;18.40;69.10;;;;;;5103471;28;20475;-71
2022/05/18 02:37:32;;;;;;;3.60;3.30;;;18.40;69.40;;;;;;5103585;28;20427;-71
2022/05/18 02:39:59;;;;;;;3.85;3.50;;;18.40;69.50;;;;;;5105714;28;20921;-70
2022/05/18 02:42:25;;;;;;;4.80;3.80;;;18.40;69.60;;;;;;5104918;28;20423;-70
2022/05/18 02:44:52;;;;;;;3.72;3.42;;;18.40;69.40;;;;;;5102596;28;20937;-71
2022/05/18 02:47:20;;;;;;;3.88;3.28;;;18.30;69.80;;;;;;5102998;28;20428;-71
2022/05/18 02:49:46;;;;;;;4.38;3.55;;;18.30;69.90;;;;;;5102202;28;20435;-70
2022/05/18 02:52:14;;;;;;;3.60;3.30;;;18.30;70.20;;;;;;5106587;28;20457;-69
2022/05/18 02:57:25;;;;;;;4.30;3.90;;;18.20;70.50;;;;;;5103379;28;20909;-70
2022/05/18 02:59:52;;;;;;;4.88;3.90;;;18.20;70.90;;;;;;5106010;28;20427;-70
2022/05/18 03:02:19;;;;;;;3.65;3.35;;;18.20;70.80;;;;;;5106601;28;20420;-70
2022/05/18 03:04:45;;;;;;;4.75;3.60;;;18.20;71.40;;;;;;5105229;28;20423;-70
2022/05/18 03:07:12;;;;;;;4.05;3.60;;;18.10;71.50;;;;;;5104762;28;20493;-70
2022/05/18 03:09:40;;;;;;;3.92;3.50;;;18.10;72.30;;;;;;5105613;28;20439;-71
2022/05/18 03:12:08;;;;;;;5.05;3.80;;;18.10;71.90;;;;;;5106831;28;20424;-69
2022/05/18 03:14:35;;;;;;;4.50;4.00;;;18.00;72.60;;;;;;5106668;28;20450;-70
2022/05/18 03:17:02;;;;;;;4.40;3.90;;;18.00;72.50;;;;;;5098942;28;20915;-71
2022/05/18 03:19:28;;;;;;;4.43;3.38;;;18.10;71.60;;;;;;5106376;28;20474;-71
2022/05/18 03:24:40;;;;;;;5.05;3.70;;;18.10;70.80;;;;;;5110305;27;20439;-70
2022/05/18 03:27:07;;;;;;;5.72;3.78;;;18.10;70.70;;;;;;5110531;28;20432;-72
2022/05/18 03:29:34;;;;;;;5.73;3.70;;;18.10;71.00;;;;;;5106994;28;20427;-71
2022/05/18 03:32:01;;;;;;;4.07;3.63;;;18.10;71.10;;;;;;5104122;27;20559;-69
2022/05/18 03:34:27;;;;;;;3.90;3.50;;;18.10;71.30;;;;;;5106429;28;20477;-70
2022/05/18 03:36:54;;;;;;;3.90;3.53;;;18.00;71.10;;;;;;5105117;28;20504;-70
2022/05/18 03:39:21;;;;;;;4.10;3.70;;;18.00;71.50;;;;;;5108407;28;20496;-70
2022/05/18 03:41:49;;;;;;;3.90;3.60;;;18.00;71.70;;;;;;5109436;28;20924;-70
2022/05/18 03:44:15;;;;;;;6.10;3.70;;;17.90;72.00;;;;;;5109876;27;20498;-71
2022/05/18 03:46:42;;;;;;;4.00;3.60;;;17.90;71.70;;;;;;5108711;28;20457;-70
2022/05/18 03:49:09;;;;;;;3.90;3.60;;;17.90;72.30;;;;;;5111110;28;20428;-70
2022/05/18 03:51:37;;;;;;;4.38;3.88;;;17.90;71.90;;;;;;5110165;28;20432;-71
2022/05/18 03:54:05;;;;;;;4.15;3.78;;;18.00;71.90;;;;;;5124661;28;20421;-70
2022/05/18 03:56:31;;;;;;;4.20;3.57;;;18.00;71.60;;;;;;5127208;27;20521;-71
2022/05/18 03:59:00;;;;;;;4.75;4.00;;;18.00;71.60;;;;;;5119539;28;20426;-70
2022/05/18 04:01:27;;;;;;;4.45;3.72;;;18.00;71.10;;;;;;5104306;28;20426;-70
2022/05/18 04:03:54;;;;;;;5.73;4.30;;;18.00;71.00;;;;;;5112897;28;20428;-72
2022/05/18 04:06:21;;;;;;;6.90;4.70;;;18.00;70.90;;;;;;5110791;28;20466;-70
2022/05/18 04:08:49;;;;;;;5.30;4.00;;;18.00;71.40;;;;;;5104299;28;20481;-71
2022/05/18 04:11:17;;;;;;;5.32;4.28;;;18.00;72.00;;;;;;5103437;27;20427;-71
2022/05/18 04:13:43;;;;;;;5.13;4.68;;;17.90;71.50;;;;;;5107086;28;20477;-70
2022/05/18 04:16:12;;;;;;;5.75;4.45;;;17.90;71.60;;;;;;5107047;28;20445;-71
2022/05/18 04:18:38;;;;;;;8.00;4.53;;;17.90;71.90;;;;;;5108160;28;20996;-71
2022/05/18 04:21:06;;;;;;;6.88;5.10;;;17.90;72.20;;;;;;5107573;28;20427;-70
2022/05/18 04:23:34;;;;;;;6.40;5.00;;;17.90;72.30;;;;;;5101480;28;20507;-73
2022/05/18 04:26:00;;;;;;;7.32;4.78;;;17.90;72.60;;;;;;5107530;28;20428;-71
2022/05/18 04:28:27;;;;;;;6.72;5.07;;;17.90;72.40;;;;;;5098478;28;20491;-70
2022/05/18 04:30:54;;;;;;;7.78;4.72;;;17.90;72.20;;;;;;5104333;28;20433;-71
2022/05/18 04:33:24;;;;;;;9.13;5.80;;;17.90;72.10;;;;;;5104452;28;20423;-70
2022/05/18 04:35:51;;;;;;;11.70;5.60;;;17.90;72.10;;;;;;5103566;28;20428;-72
2022/05/18 04:38:19;;;;;;;8.45;6.38;;;18.00;72.30;;;;;;5108419;28;20420;-72
2022/05/18 04:40:46;;;;;;;7.68;5.65;;;18.00;71.80;;;;;;5100914;28;20917;-69
2022/05/18 04:43:13;;;;;;;7.53;5.30;;;18.00;71.70;;;;;;5103711;28;20435;-69
2022/05/18 04:45:44;;;;;;;9.10;6.50;;;18.00;71.90;;;;;;5105479;28;20424;-71
2022/05/18 04:48:12;;;;;;;12.68;6.90;;;18.00;71.60;;;;;;5106917;28;20428;-70
2022/05/18 04:50:40;;;;;;;8.20;5.47;;;18.00;71.70;;;;;;5108352;27;20424;-69
2022/05/18 04:53:07;;;;;;;10.13;6.53;;;18.00;71.60;;;;;;5103497;28;20433;-68
2022/05/18 04:55:33;;;;;;;9.05;5.70;;;18.00;71.90;;;;;;5104942;28;20424;-66
2022/05/18 04:58:01;;;;;;;8.40;6.43;;;18.00;71.80;;;;;;5107213;28;20423;-66
2022/05/18 05:00:28;;;;;;;7.78;5.50;;;18.00;72.20;;;;;;5108197;28;20965;-65
2022/05/18 05:02:57;;;;;;;13.35;6.82;;;17.90;72.60;;;;;;5101438;28;20440;-66
2022/05/18 05:05:25;;;;;;;7.60;5.43;;;18.00;72.00;;;;;;5106326;28;20439;-66
2022/05/18 05:07:53;;;;;;;7.57;5.55;;;18.00;72.30;;;;;;5105441;27;20499;-65
2022/05/18 05:10:20;;;;;;;6.03;4.53;;;18.00;72.40;;;;;;5113882;27;20471;-66
2022/05/18 05:12:47;;;;;;;5.10;4.32;;;18.10;72.30;;;;;;5109707;27;20859;-70
2022/05/18 05:15:14;;;;;;;5.72;4.40;;;18.20;72.00;;;;;;5108507;28;20927;-69
2022/05/18 05:17:41;;;;;;;6.28;4.28;;;18.20;71.50;;;;;;5109527;28;20416;-72
2022/05/18 05:20:10;;;;;;;6.13;4.47;;;18.30;71.70;;;;;;5105258;27;21809;-72
2022/05/18 05:22:36;;;;;;;6.18;4.13;;;18.30;72.00;;;;;;5119183;28;20447;-69
2022/05/18 05:25:05;;;;;;;6.22;4.32;;;18.30;71.20;;;;;;5122874;28;20412;-71
2022/05/18 05:27:32;;;;;;;4.85;4.10;;;18.50;70.90;;;;;;5111735;28;20454;-72
2022/05/18 05:29:58;;;;;;;4.47;4.00;;;18.50;70.60;;;;;;5130736;28;20428;-71
2022/05/18 05:32:26;;;;;;;5.47;4.50;;;18.60;70.10;;;;;;5124015;27;20480;-69
2022/05/18 05:34:52;;;;;;;4.93;3.80;;;18.60;70.30;;;;;;5129835;28;20454;-68
2022/05/18 05:37:19;;;;;;;6.38;3.97;;;18.70;69.50;;;;;;5106407;28;20492;-70
2022/05/18 05:39:46;;;;;;;4.50;3.80;;;18.80;69.30;;;;;;5107436;28;20424;-70
2022/05/18 05:42:14;;;;;;;5.65;3.70;;;18.80;68.90;;;;;;5102785;27;20431;-70
2022/05/18 05:44:41;;;;;;;5.50;4.00;;;18.90;68.40;;;;;;5109806;28;20419;-70
2022/05/18 05:47:11;;;;;;;5.68;3.78;;;18.90;68.30;;;;;;5108887;28;20435;-70
2022/05/18 05:49:38;;;;;;;5.63;3.70;;;19.00;67.70;;;;;;5128548;28;20408;-71
2022/05/18 05:52:06;;;;;;;5.00;4.00;;;19.00;67.90;;;;;;5130061;28;20420;-70
2022/05/18 05:54:33;;;;;;;5.90;4.20;;;19.10;67.80;;;;;;5131995;28;20412;-70
2022/05/18 05:57:02;;;;;;;4.20;3.80;;;19.10;67.50;;;;;;5106609;28;20506;-71
2022/05/18 05:59:31;;;;;;;5.30;4.20;;;19.20;66.90;;;;;;5111744;28;20555;-73
2022/05/18 06:02:00;;;;;;;6.50;4.95;;;19.20;67.00;;;;;;5118034;27;20424;-71
2022/05/18 06:04:31;;;;;;;8.25;6.18;;;19.20;66.60;;;;;;5109566;28;20412;-73
2022/05/18 06:06:58;;;;;;;6.53;5.50;;;19.30;66.40;;;;;;5108852;28;20424;-73
2022/05/18 06:09:25;;;;;;;6.63;5.10;;;19.40;66.50;;;;;;5106123;28;20428;-72
2022/05/18 06:11:52;;;;;;;6.07;4.30;;;19.40;66.10;;;;;;5108974;28;20461;-72
2022/05/18 06:14:19;;;;;;;5.25;3.63;;;19.50;65.70;;;;;;5108499;28;20424;-72
2022/05/18 06:16:47;;;;;;;4.50;3.63;;;19.50;65.70;;;;;;5109567;28;20473;-73
2022/05/18 06:19:14;;;;;;;4.55;3.40;;;19.60;65.00;;;;;;5107378;28;20481;-73
2022/05/18 06:21:41;;;;;;;4.15;3.75;;;19.70;64.90;;;;;;5107529;28;20427;-73
2022/05/18 06:24:09;;;;;;;4.90;3.65;;;19.70;64.40;;;;;;5109502;28;20427;-73
2022/05/18 06:26:36;;;;;;;5.60;3.50;;;19.70;64.10;;;;;;5107840;28;20419;-73
2022/05/18 06:29:03;;;;;;;6.75;3.85;;;19.80;64.10;;;;;;5108961;28;20470;-72
2022/05/18 06:31:32;;;;;;;6.00;3.10;;;19.90;63.60;;;;;;5109245;28;20414;-73
2022/05/18 06:34:00;;;;;;;4.60;3.60;;;20.00;64.00;;;;;;5113146;28;20427;-73
2022/05/18 06:36:26;;;;;;;4.53;3.70;;;20.00;63.50;;;;;;5107445;28;20917;-72
2022/05/18 06:38:53;;;;;;;3.50;3.20;;;20.10;63.30;;;;;;5108409;28;20435;-71
2022/05/18 06:41:22;;;;;;;5.47;3.60;;;20.30;63.40;;;;;;5108165;28;20424;-72
2022/05/18 06:43:50;;;;;;;5.15;4.40;;;20.30;63.00;;;;;;5107521;28;20440;-72
2022/05/18 06:46:18;;;;;;;6.15;4.03;;;20.50;61.50;;;;;;5108304;28;20424;-73
2022/05/18 06:48:45;;;;;;;4.45;3.63;;;20.50;62.20;;;;;;5107716;28;20473;-73
2022/05/18 06:51:14;;;;;;;4.47;3.38;;;20.60;61.60;;;;;;5107522;28;20990;-73
2022/05/18 06:53:41;;;;;;;4.63;3.22;;;20.80;61.50;;;;;;5110471;28;20440;-72
2022/05/18 06:56:08;;;;;;;3.80;3.28;;;20.90;60.40;;;;;;5112254;28;21074;-73
2022/05/18 06:58:34;;;;;;;3.63;3.33;;;21.00;60.70;;;;;;5110556;28;20477;-72
2022/05/18 07:01:01;;;;;;;3.63;2.90;;;21.10;60.60;;;;;;5112075;28;20416;-73
2022/05/18 07:03:28;;;;;;;4.50;3.10;;;21.30;59.60;;;;;;5108037;28;20459;-73
2022/05/18 07:05:55;;;;;;;3.15;2.83;;;21.50;59.40;;;;;;5106506;28;20954;-74
2022/05/18 07:08:22;;;;;;;3.13;2.85;;;21.60;59.30;;;;;;5112046;28;20820;-72
2022/05/18 07:10:49;;;;;;;3.92;3.15;;;21.70;58.40;;;;;;5111290;27;20718;-72
2022/05/18 07:13:17;;;;;;;3.72;3.15;;;21.90;57.30;;;;;;5111095;27;20492;-75
2022/05/18 07:15:45;;;;;;;5.13;2.83;;;22.00;57.30;;;;;;5111408;28;20451;-72
2022/05/18 07:18:11;;;;;;;3.60;2.50;;;22.00;56.80;;;;;;5110584;27;20455;-74
2022/05/18 07:20:38;;;;;;;3.00;2.70;;;22.20;56.30;;;;;;5102727;28;20431;-74
2022/05/18 07:23:05;;;;;;;3.17;2.80;;;22.20;56.20;;;;;;5111777;28;21046;-73
2022/05/18 07:25:33;;;;;;;3.08;2.78;;;22.30;55.60;;;;;;5111726;28;20432;-72
2022/05/18 07:27:59;;;;;;;3.78;3.00;;;22.40;55.30;;;;;;5109509;28;20479;-73
2022/05/18 07:30:26;;;;;;;3.20;2.90;;;22.50;55.20;;;;;;5092798;28;20421;-73
2022/05/18 07:32:53;;;;;;;4.15;2.90;;;22.60;55.50;;;;;;5108309;28;21034;-73
2022/05/18 07:35:19;;;;;;;3.88;3.10;;;22.70;54.90;;;;;;5109895;28;20432;-72
2022/05/18 07:37:46;;;;;;;2.90;2.60;;;22.90;54.10;;;;;;5108315;28;20431;-73
2022/05/18 07:40:13;;;;;;;4.70;2.43;;;23.00;54.20;;;;;;5105529;28;20419;-72
2022/05/18 07:42:41;;;;;;;3.00;2.67;;;23.20;53.60;;;;;;5109032;28;20511;-73
2022/05/18 07:45:09;;;;;;;3.20;2.72;;;23.40;52.80;;;;;;5104981;27;20434;-71
2022/05/18 07:47:36;;;;;;;3.00;2.70;;;23.60;51.90;;;;;;5108792;28;20467;-72
2022/05/18 07:50:02;;;;;;;2.88;2.67;;;23.70;52.20;;;;;;5111154;28;20420;-74
2022/05/18 07:52:30;;;;;;;3.38;2.80;;;23.80;51.50;;;;;;5111404;27;20412;-72
2022/05/18 07:54:57;;;;;;;3.60;2.80;;;23.90;50.60;;;;;;5112836;28;20432;-73
2022/05/18 07:57:23;;;;;;;3.17;2.90;;;24.00;50.70;;;;;;5111241;28;20427;-72
2022/05/18 07:59:59;;;;;;;3.13;2.72;;;24.10;50.40;;;;;;5117989;27;20420;-74
2022/05/18 08:02:25;;;;;;;3.63;2.83;;;24.20;50.40;;;;;;5124090;28;20444;-73
2022/05/18 08:04:52;;;;;;;3.50;2.80;;;24.30;50.40;;;;;;5120960;28;20424;-73
2022/05/18 08:07:19;;;;;;;2.72;2.40;;;24.50;49.80;;;;;;5123729;28;21070;-74
2022/05/18 08:15:16;;;;;;;3.83;2.50;;;25.10;47.70;;;;;;5121817;28;20447;-73
2022/05/18 08:17:44;;;;;;;4.63;2.58;;;25.00;47.90;;;;;;5112358;27;20451;-73
2022/05/18 08:20:14;;;;;;;2.50;2.30;;;25.10;48.10;;;;;;5112365;27;20456;-72
2022/05/18 08:22:40;;;;;;;3.03;2.30;;;25.30;47.70;;;;;;5093288;27;20530;-74
2022/05/18 08:25:09;;;;;;;2.78;2.47;;;25.50;46.60;;;;;;5104987;27;20420;-73
2022/05/18 08:27:39;;;;;;;2.80;2.30;;;25.70;46.90;;;;;;5110257;28;20408;-72
2022/05/18 08:30:08;;;;;;;2.30;2.10;;;25.90;46.80;;;;;;5110616;28;21135;-75
2022/05/18 08:32:36;;;;;;;2.58;2.20;;;26.20;45.00;;;;;;5108600;27;20536;-74
2022/05/18 08:35:03;;;;;;;4.10;2.10;;;26.30;44.40;;;;;;5109894;27;20430;-75
2022/05/18 08:37:30;;;;;;;2.80;2.17;;;26.30;44.40;;;;;;5109993;28;20449;-74
2022/05/18 08:39:56;;;;;;;3.00;2.20;;;26.40;44.50;;;;;;5109077;28;20428;-75
2022/05/18 08:42:23;;;;;;;3.20;2.10;;;26.70;44.80;;;;;;5109347;28;20512;-75
2022/05/18 08:44:50;;;;;;;2.67;2.20;;;27.00;44.10;;;;;;5108890;28;21119;-74
2022/05/18 08:47:22;;;;;;;2.92;2.10;;;27.30;42.10;;;;;;5109265;27;20420;-75
2022/05/18 08:49:57;;;;;;;2.80;2.10;;;27.50;40.90;;;;;;5108440;28;20424;-74
2022/05/18 08:52:44;;;;;;;4.18;1.83;;;27.50;40.90;;;;;;5106906;28;20420;-75
2022/05/18 08:55:32;;;;;;;2.42;1.90;;;27.60;40.70;;;;;;5108063;28;20431;-74
2022/05/18 08:57:59;;;;;;;3.33;1.95;;;27.70;40.00;;;;;;5109882;27;20404;-74
2022/05/18 09:00:30;;;;;;;2.40;2.20;;;27.80;40.10;;;;;;5112362;28;20423;-75
2022/05/18 09:03:01;;;;;;;3.08;2.03;;;28.00;40.60;;;;;;5093151;28;20425;-73
2022/05/18 09:05:34;;;;;;;3.90;2.20;;;28.10;40.00;;;;;;5105313;28;20951;-74
2022/05/18 09:08:07;;;;;;;3.70;2.00;;;28.30;39.80;;;;;;5111292;27;20428;-73
2022/05/18 09:10:39;;;;;;;2.47;2.20;;;28.40;39.80;;;;;;5113245;28;20454;-75
2022/05/18 09:13:05;;;;;;;2.92;2.30;;;28.60;39.40;;;;;;5109758;28;20443;-73
2022/05/18 09:15:38;;;;;;;3.25;1.90;;;28.80;38.90;;;;;;5108719;28;20510;-74
2022/05/18 09:18:15;;;;;;;2.42;1.83;;;29.10;38.40;;;;;;5100646;28;20492;-75
2022/05/18 09:20:48;;;;;;;3.92;2.97;;;29.30;36.90;;;;;;5108202;28;20456;-74
2022/05/18 09:23:35;;;;;;;2.80;2.60;;;29.30;37.50;;;;;;5103059;27;20428;-75
2022/05/18 09:26:13;;;;;;;2.80;2.13;;;29.30;37.80;;;;;;5108675;28;20477;-75
2022/05/18 09:28:50;;;;;;;2.50;1.77;;;29.50;36.50;;;;;;5105476;28;20451;-75
2022/05/18 09:31:31;;;;;;;3.13;1.85;;;29.50;36.40;;;;;;5111394;28;21134;-72
2022/05/18 09:34:31;;;;;;;3.67;2.10;;;29.50;35.70;;;;;;5110644;28;20432;-74
2022/05/18 09:37:16;;;;;;;1.92;1.67;;;29.40;36.90;;;;;;5080963;28;20513;-73
2022/05/18 09:39:45;;;;;;;2.50;1.73;;;29.60;36.00;;;;;;5107620;28;20505;-74
2022/05/18 09:42:17;;;;;;;2.95;2.00;;;29.80;36.10;;;;;;5109264;28;20423;-73
2022/05/18 09:44:50;;;;;;;2.77;1.90;;;29.90;35.90;;;;;;5109084;28;20521;-73
2022/05/18 09:47:19;;;;;;;2.08;1.75;;;30.10;36.20;;;;;;5110589;27;20453;-73
2022/05/18 09:49:50;;;;;;;2.72;2.10;;;30.00;36.20;;;;;;5119063;27;20429;-72
2022/05/18 09:52:21;;;;;;;1.70;1.60;;;30.00;35.20;;;;;;5109104;28;21016;-74
2022/05/18 09:54:47;;;;;;;3.23;2.00;;;30.10;35.10;;;;;;5120164;28;20427;-72
2022/05/18 09:57:19;;;;;;;3.10;1.88;;;30.20;35.20;;;;;;5107923;28;20424;-74
2022/05/18 09:59:49;;;;;;;2.00;1.80;;;30.30;34.80;;;;;;5108092;28;20436;-74
2022/05/18 10:07:51;;;;;;;2.38;1.90;;;30.60;34.20;;;;;;5117697;28;20424;-72
2022/05/18 10:10:26;;;;;;;1.88;1.77;;;30.80;34.00;;;;;;5109877;28;20443;-74
2022/05/18 10:13:03;;;;;;;2.72;1.77;;;31.20;32.90;;;;;;5108867;28;20485;-74
2022/05/18 10:15:37;;;;;;;1.60;1.50;;;31.20;33.90;;;;;;5110001;28;20424;-73
2022/05/18 10:18:14;;;;;;;2.28;1.58;;;31.20;32.00;;;;;;5109207;28;20412;-75
2022/05/18 10:20:41;;;;;;;3.53;1.90;;;31.20;32.80;;;;;;5107427;28;20410;-74
2022/05/18 10:23:30;;;;;;;2.65;1.50;;;31.30;32.10;;;;;;5109913;28;20832;-73
2022/05/18 10:25:58;;;;;;;1.95;1.50;;;31.50;32.60;;;;;;5103174;28;20420;-73
2022/05/18 10:28:27;;;;;;;2.50;1.80;;;31.60;32.40;;;;;;5113180;28;20477;-74
2022/05/18 10:30:56;;;;;;;2.20;1.70;;;31.80;32.20;;;;;;5106553;27;20428;-73
2022/05/18 10:33:31;;;;;;;2.70;1.70;;;32.10;31.20;;;;;;5114549;28;20970;-74
2022/05/18 10:36:07;;;;;;;1.70;1.60;;;32.10;30.30;;;;;;5114418;28;20485;-74
2022/05/18 10:38:36;;;;;;;2.90;1.90;;;32.00;30.30;;;;;;5115052;27;20844;-73
2022/05/18 10:41:13;;;;;;;3.20;1.60;;;31.70;31.20;;;;;;5113919;28;20416;-74
2022/05/18 10:43:42;;;;;;;1.50;1.40;;;31.80;32.10;;;;;;5125637;28;20435;-73
2022/05/18 10:46:11;;;;;;;2.03;1.60;;;32.30;30.50;;;;;;5132139;28;20464;-71
2022/05/18 10:48:39;;;;;;;3.10;2.10;;;32.60;29.80;;;;;;5130101;28;20422;-73
2022/05/18 10:51:09;;;;;;;2.83;1.70;;;32.80;30.00;;;;;;5114460;28;20493;-73
2022/05/18 10:53:40;;;;;;;2.17;1.90;;;32.80;29.40;;;;;;5114673;28;20438;-73
2022/05/18 10:56:10;;;;;;;1.40;1.30;;;32.80;29.40;;;;;;5113720;27;20431;-74
2022/05/18 10:58:43;;;;;;;2.70;1.50;;;32.70;28.50;;;;;;5115998;27;20823;-73
2022/05/18 11:01:16;;;;;;;1.88;1.52;;;32.50;28.60;;;;;;5115829;28;20416;-72
2022/05/18 11:03:49;;;;;;;3.00;1.30;;;32.30;28.60;;;;;;5114594;27;20431;-72
2022/05/18 11:06:21;;;;;;;1.42;1.30;;;32.30;28.10;;;;;;5108534;27;20485;-73
2022/05/18 11:08:50;;;;;;;1.80;1.40;;;32.40;28.50;;;;;;5112712;27;20470;-72
2022/05/18 11:11:32;;;;;;;1.88;1.58;;;32.50;28.40;;;;;;5124165;27;20901;-73
2022/05/18 11:14:05;;;;;;;2.13;1.50;;;32.70;28.80;;;;;;5112967;28;20847;-72
2022/05/18 11:16:41;;;;;;;1.58;1.30;;;33.00;27.60;;;;;;5115715;28;21048;-71
2022/05/18 11:19:15;;;;;;;2.23;1.20;;;33.00;27.40;;;;;;5116252;27;20481;-73
2022/05/18 11:21:50;;;;;;;1.97;1.80;;;32.80;27.20;;;;;;5106503;27;20445;-74
2022/05/18 11:24:27;;;;;;;2.20;1.30;;;32.80;28.10;;;;;;5111414;28;20436;-74
2022/05/18 11:27:03;;;;;;;2.25;1.50;;;33.00;27.00;;;;;;5111176;28;20505;-74
2022/05/18 11:29:46;;;;;;;1.70;1.20;;;33.10;26.40;;;;;;5110493;28;20437;-73
2022/05/18 11:32:22;;;;;;;1.65;1.20;;;33.20;26.40;;;;;;5111352;28;20428;-73
2022/05/18 11:35:00;;;;;;;1.98;1.48;;;33.10;26.10;;;;;;5115529;28;20431;-75
2022/05/18 11:37:57;;;;;;;1.92;1.10;;;33.20;26.40;;;;;;5102498;28;20461;-73
2022/05/18 11:40:35;;;;;;;2.20;1.35;;;33.30;25.00;;;;;;5085890;28;20903;-73
2022/05/18 11:43:28;;;;;;;1.50;1.10;;;33.20;25.40;;;;;;5090874;28;20439;-73
2022/05/18 11:46:14;;;;;;;2.15;1.23;;;33.10;25.60;;;;;;5100218;27;20444;-73
2022/05/18 11:48:50;;;;;;;2.22;1.20;;;33.00;25.30;;;;;;5110709;28;20473;-73
2022/05/18 11:51:25;;;;;;;1.80;1.20;;;33.00;24.70;;;;;;5109801;27;20973;-74
2022/05/18 11:54:02;;;;;;;2.40;1.20;;;33.00;25.20;;;;;;5108994;28;20439;-72
2022/05/18 11:56:40;;;;;;;1.30;1.10;;;33.20;25.30;;;;;;5098601;28;21203;-73
2022/05/18 11:59:29;;;;;;;1.48;1.10;;;33.20;24.20;;;;;;5110888;28;20496;-74
2022/05/18 12:02:11;;;;;;;2.15;1.00;;;33.20;25.40;;;;;;5110949;28;20547;-74
2022/05/18 12:05:05;;;;;;;2.30;1.30;;;33.30;25.60;;;;;;5111058;28;20495;-74
2022/05/18 12:07:52;;;;;;;1.70;1.10;;;33.50;25.10;;;;;;5110318;28;20475;-74
2022/05/18 12:10:29;;;;;;;1.70;1.10;;;33.80;25.00;;;;;;5102116;28;20472;-74
2022/05/18 12:13:06;;;;;;;2.40;1.30;;;34.00;24.20;;;;;;5111914;27;20463;-73
2022/05/18 12:15:45;;;;;;;1.60;1.20;;;33.80;24.50;;;;;;5111261;28;20510;-75
2022/05/18 12:18:16;;;;;;;1.20;1.10;;;33.50;24.50;;;;;;5100029;28;20587;-73
2022/05/18 12:20:49;;;;;;;1.70;1.10;;;33.30;25.10;;;;;;5094736;28;20862;-74
2022/05/18 12:23:19;;;;;;;1.80;1.30;;;33.30;24.90;;;;;;5110831;28;20909;-71
2022/05/18 12:25:47;;;;;;;1.60;1.10;;;33.20;25.60;;;;;;5109882;28;20930;-73
2022/05/18 12:28:15;;;;;;;1.65;0.93;;;33.40;25.70;;;;;;5110496;28;20496;-72
2022/05/18 12:30:44;;;;;;;2.15;1.27;;;33.70;24.70;;;;;;5110330;28;20428;-73
2022/05/18 12:33:12;;;;;;;2.00;1.10;;;33.80;25.10;;;;;;5111088;28;20943;-74
2022/05/18 12:35:55;;;;;;;2.00;1.27;;;33.80;24.80;;;;;;5111736;28;20411;-75
2022/05/18 12:38:25;;;;;;;1.35;1.20;;;33.70;25.80;;;;;;5111527;27;21005;-73
2022/05/18 12:40:56;;;;;;;1.80;1.40;;;33.60;25.10;;;;;;5100023;28;20424;-74
2022/05/18 12:43:28;;;;;;;2.30;1.40;;;33.50;25.90;;;;;;5106982;28;20542;-71
2022/05/18 12:46:02;;;;;;;2.10;1.30;;;33.60;25.30;;;;;;5108684;27;20511;-73
2022/05/18 12:48:39;;;;;;;1.40;1.30;;;33.50;25.80;;;;;;5106178;28;20456;-74
2022/05/18 12:51:11;;;;;;;2.60;1.50;;;33.50;25.60;;;;;;5106712;28;20457;-74
2022/05/18 12:54:03;;;;;;;1.92;1.35;;;33.50;25.60;;;;;;5109569;28;20427;-72
2022/05/18 12:56:50;;;;;;;2.67;1.40;;;33.30;25.50;;;;;;5102140;28;20459;-72
2022/05/18 12:59:20;;;;;;;1.67;1.17;;;33.20;26.30;;;;;;5098774;27;20441;-72
2022/05/18 13:01:52;;;;;;;1.70;1.50;;;33.20;26.40;;;;;;5105422;27;20473;-70
2022/05/18 13:04:42;;;;;;;1.53;1.40;;;33.50;26.60;;;;;;5102765;28;20446;-72
2022/05/18 13:07:26;;;;;;;2.30;1.30;;;33.70;26.30;;;;;;5104612;27;20424;-72
2022/05/18 13:10:05;;;;;;;1.60;1.10;;;33.90;25.80;;;;;;5107364;27;20510;-75
2022/05/18 13:12:47;;;;;;;1.35;1.25;;;34.10;25.70;;;;;;5108539;28;20511;-72
2022/05/18 13:15:38;;;;;;;2.00;1.30;;;34.10;25.30;;;;;;5108469;27;20770;-73
2022/05/18 13:18:12;;;;;;;1.30;1.20;;;33.80;25.60;;;;;;5105716;28;20929;-73